createdAt,value
2019-03-18T00:00:20.971Z,4.00
2019-03-18T00:02:49.537Z,4.00
2019-03-18T00:05:18.106Z,4.10
2019-03-18T00:07:46.690Z,4.00
2019-03-18T00:10:15.394Z,4.00
2019-03-18T00:12:44.038Z,4.10
2019-03-18T00:15:12.776Z,4.10
2019-03-18T00:17:41.517Z,4.10
2019-03-18T00:20:11.021Z,4.10
2019-03-18T00:22:39.826Z,4.10
2019-03-18T00:25:13.461Z,4.10
2019-03-18T00:27:42.162Z,4.10
2019-03-18T00:30:18.765Z,4.10
2019-03-18T00:32:47.396Z,4.20
2019-03-18T00:35:16.309Z,4.10
2019-03-18T00:37:45.013Z,4.10
2019-03-18T00:40:18.742Z,4.10
2019-03-18T00:42:47.539Z,4.10
2019-03-18T00:45:16.297Z,4.10
2019-03-18T00:47:45.126Z,4.00
2019-03-18T00:50:17.226Z,4.10
2019-03-18T00:52:45.957Z,4.10
2019-03-18T00:55:14.761Z,4.10
2019-03-18T00:57:43.398Z,4.00
2019-03-18T01:00:14.370Z,4.00
2019-03-18T01:02:43.023Z,3.90
2019-03-18T01:05:11.718Z,3.90
2019-03-18T01:07:40.633Z,3.90
2019-03-18T01:10:14.910Z,3.80
2019-03-18T01:12:43.526Z,3.70
2019-03-18T01:15:12.838Z,3.70
2019-03-18T01:17:41.645Z,3.60
2019-03-18T01:20:14.209Z,3.60
2019-03-18T01:22:42.885Z,3.50
2019-03-18T01:25:11.878Z,3.50
2019-03-18T01:27:40.872Z,3.50
2019-03-18T01:30:13.959Z,3.40
2019-03-18T01:32:42.525Z,3.40
2019-03-18T01:35:11.366Z,3.50
2019-03-18T01:37:40.282Z,3.60
2019-03-18T01:40:13.877Z,3.60
2019-03-18T01:42:42.506Z,3.60
2019-03-18T01:45:12.007Z,3.60
2019-03-18T01:47:40.651Z,3.60
2019-03-18T01:50:15.867Z,3.60
2019-03-18T01:52:44.581Z,3.60
2019-03-18T01:55:13.390Z,3.50
2019-03-18T01:57:42.140Z,3.40
2019-03-18T02:00:14.515Z,3.40
2019-03-18T02:02:43.323Z,3.30
2019-03-18T02:05:12.030Z,3.20
2019-03-18T02:07:40.685Z,3.20
2019-03-18T02:10:14.304Z,3.10
2019-03-18T02:12:43.002Z,3.10
2019-03-18T02:15:15.590Z,3.10
2019-03-18T02:17:44.223Z,3.10
2019-03-18T02:20:14.442Z,3.00
2019-03-18T02:22:43.144Z,3.00
2019-03-18T02:25:12.154Z,3.00
2019-03-18T02:27:40.717Z,2.90
2019-03-18T02:30:15.003Z,3.00
2019-03-18T02:32:43.566Z,3.00
2019-03-18T02:35:12.286Z,2.90
2019-03-18T02:37:40.854Z,2.90
2019-03-18T02:40:10.961Z,2.90
2019-03-18T02:42:39.530Z,2.90
2019-03-18T02:45:09.830Z,2.90
2019-03-18T02:47:38.486Z,2.90
2019-03-18T02:50:08.083Z,2.90
2019-03-18T02:52:36.656Z,2.90
2019-03-18T02:55:06.455Z,2.80
2019-03-18T02:57:35.055Z,2.80
2019-03-18T03:00:05.605Z,2.80
2019-03-18T03:02:34.281Z,2.80
2019-03-18T03:05:02.848Z,2.70
2019-03-18T03:07:31.407Z,2.70
2019-03-18T03:09:59.991Z,2.60
2019-03-18T03:12:28.563Z,2.70
2019-03-18T03:14:57.123Z,2.70
2019-03-18T03:17:25.688Z,2.70
2019-03-18T03:19:54.280Z,2.70
2019-03-18T03:22:22.839Z,2.70
2019-03-18T03:24:51.415Z,2.70
2019-03-18T03:27:20.039Z,2.70
2019-03-18T03:29:48.551Z,2.70
2019-03-18T03:32:17.123Z,2.70
2019-03-18T03:34:45.693Z,2.70
2019-03-18T03:37:14.267Z,2.70
2019-03-18T03:39:42.903Z,2.60
2019-03-18T03:42:11.665Z,2.60
2019-03-18T03:44:40.236Z,2.60
2019-03-18T03:47:08.798Z,2.60
2019-03-18T03:49:37.484Z,2.60
2019-03-18T03:52:06.279Z,2.50
2019-03-18T03:54:34.919Z,2.50
2019-03-18T03:57:03.826Z,2.50
2019-03-18T03:59:32.547Z,2.50
2019-03-18T04:02:01.251Z,2.50
2019-03-18T04:04:30.285Z,2.50
2019-03-18T04:06:58.937Z,2.50
2019-03-18T04:09:27.827Z,2.40
2019-03-18T04:11:56.400Z,2.50
2019-03-18T04:14:24.971Z,2.50
2019-03-18T04:17:01.955Z,2.50
2019-03-18T04:19:23.911Z,2.50
2019-03-18T04:21:52.626Z,2.50
2019-03-18T04:24:21.258Z,2.60
2019-03-18T04:26:50.028Z,2.60
2019-03-18T04:29:20.230Z,2.60
2019-03-18T04:31:48.969Z,2.60
2019-03-18T04:34:17.540Z,2.60
2019-03-18T04:36:46.103Z,2.60
2019-03-18T04:39:14.678Z,2.60
2019-03-18T04:41:43.262Z,2.60
2019-03-18T04:44:11.838Z,2.60
2019-03-18T04:46:40.471Z,2.60
2019-03-18T04:49:09.047Z,2.60
2019-03-18T04:51:37.617Z,2.60
2019-03-18T04:54:06.310Z,2.60
2019-03-18T04:56:34.885Z,2.60
2019-03-18T04:59:03.518Z,2.60
2019-03-18T05:01:32.094Z,2.60
2019-03-18T05:04:00.667Z,2.50
2019-03-18T05:06:29.242Z,2.50
2019-03-18T05:08:57.815Z,2.50
2019-03-18T05:11:26.555Z,2.50
2019-03-18T05:13:55.263Z,2.50
2019-03-18T05:16:24.052Z,2.60
2019-03-18T05:18:52.614Z,2.50
2019-03-18T05:21:21.184Z,2.50
2019-03-18T05:23:49.755Z,2.50
2019-03-18T05:26:18.371Z,2.60
2019-03-18T05:28:46.950Z,2.60
2019-03-18T05:31:15.514Z,2.60
2019-03-18T05:33:44.090Z,2.60
2019-03-18T05:36:12.722Z,2.60
2019-03-18T05:38:41.306Z,2.60
2019-03-18T05:41:09.882Z,2.60
2019-03-18T05:43:38.446Z,2.70
2019-03-18T05:46:07.026Z,2.60
2019-03-18T05:48:35.591Z,2.60
2019-03-18T05:51:04.231Z,2.60
2019-03-18T05:53:32.950Z,2.70
2019-03-18T05:56:02.202Z,2.70
2019-03-18T05:58:30.739Z,2.70
2019-03-18T06:00:59.326Z,2.70
2019-03-18T06:03:27.890Z,2.70
2019-03-18T06:05:56.950Z,2.70
2019-03-18T06:08:25.515Z,2.70
2019-03-18T06:10:54.082Z,2.70
2019-03-18T06:13:22.682Z,2.70
2019-03-18T06:15:51.267Z,2.70
2019-03-18T06:18:19.810Z,2.70
2019-03-18T06:20:48.377Z,2.70
2019-03-18T06:23:16.962Z,2.60
2019-03-18T06:25:45.533Z,2.60
2019-03-18T06:28:14.185Z,2.60
2019-03-18T06:30:42.902Z,2.60
2019-03-18T06:33:11.398Z,2.60
2019-03-18T06:35:39.978Z,2.60
2019-03-18T06:38:08.546Z,2.60
2019-03-18T06:40:37.135Z,2.60
2019-03-18T06:43:05.754Z,2.60
2019-03-18T06:45:34.340Z,2.60
2019-03-18T06:48:05.097Z,2.70
2019-03-18T06:50:33.111Z,2.70
2019-03-18T06:53:01.682Z,2.70
2019-03-18T06:55:30.265Z,2.80
2019-03-18T06:57:58.890Z,3.00
2019-03-18T07:00:27.526Z,3.00
2019-03-18T07:02:56.175Z,3.00
2019-03-18T07:05:24.742Z,3.00
2019-03-18T07:07:53.323Z,3.00
2019-03-18T07:10:21.886Z,3.10
2019-03-18T07:12:50.494Z,3.40
2019-03-18T07:15:19.099Z,3.40
2019-03-18T07:17:47.719Z,3.40
2019-03-18T07:20:16.362Z,3.20
2019-03-18T07:22:44.930Z,3.20
2019-03-18T07:25:13.646Z,3.20
2019-03-18T07:27:42.282Z,3.20
2019-03-18T07:30:13.103Z,3.10
2019-03-18T07:32:41.678Z,3.10
2019-03-18T07:35:10.518Z,3.10
2019-03-18T07:37:39.155Z,3.10
2019-03-18T07:40:12.727Z,3.30
2019-03-18T07:42:41.301Z,3.30
2019-03-18T07:45:11.231Z,3.30
2019-03-18T07:47:39.861Z,3.30
2019-03-18T07:50:12.730Z,3.30
2019-03-18T07:52:41.306Z,3.30
2019-03-18T07:55:10.617Z,3.30
2019-03-18T07:57:39.266Z,3.20
2019-03-18T08:00:10.902Z,3.20
2019-03-18T08:02:39.505Z,3.30
2019-03-18T08:05:09.594Z,3.20
2019-03-18T08:07:38.159Z,3.20
2019-03-18T08:10:09.641Z,3.20
2019-03-18T08:12:38.215Z,3.20
2019-03-18T08:15:08.826Z,3.30
2019-03-18T08:17:37.390Z,3.30
2019-03-18T08:20:08.510Z,3.40
2019-03-18T08:22:37.154Z,3.50
2019-03-18T08:25:07.487Z,3.50
2019-03-18T08:27:36.058Z,3.50
2019-03-18T08:30:13.562Z,3.50
2019-03-18T08:32:42.138Z,3.60
2019-03-18T08:35:11.005Z,3.80
2019-03-18T08:37:39.582Z,4.00
2019-03-18T08:40:11.859Z,4.10
2019-03-18T08:42:40.501Z,4.10
2019-03-18T08:45:11.001Z,4.10
2019-03-18T08:47:39.576Z,4.10
2019-03-18T08:50:11.888Z,4.10
2019-03-18T08:52:39.913Z,4.10
2019-03-18T08:55:10.130Z,4.00
2019-03-18T08:57:38.836Z,3.90
2019-03-18T09:00:12.905Z,4.00
2019-03-18T09:02:41.464Z,4.00
2019-03-18T09:05:10.378Z,3.90
2019-03-18T09:07:38.942Z,3.90
2019-03-18T09:10:12.646Z,4.00
2019-03-18T09:12:41.214Z,4.00
2019-03-18T09:15:11.298Z,4.10
2019-03-18T09:17:39.994Z,4.20
2019-03-18T09:20:11.194Z,4.30
2019-03-18T09:22:39.839Z,4.80
2019-03-18T09:25:10.249Z,5.30
2019-03-18T09:27:38.887Z,5.70
2019-03-18T09:30:10.526Z,5.70
2019-03-18T09:32:39.102Z,5.40
2019-03-18T09:35:08.111Z,5.20
2019-03-18T09:37:36.694Z,5.30
2019-03-18T09:40:11.115Z,5.20
2019-03-18T09:42:39.758Z,5.50
2019-03-18T09:45:19.069Z,5.90
2019-03-18T09:47:47.662Z,6.60
2019-03-18T09:50:16.779Z,6.80
2019-03-18T09:52:45.402Z,6.50
2019-03-18T09:55:14.152Z,6.50
2019-03-18T09:57:42.713Z,6.20
2019-03-18T10:00:16.214Z,7.30
2019-03-18T10:02:45.888Z,8.40
2019-03-18T10:05:14.806Z,9.80
2019-03-18T10:07:43.470Z,11.00
2019-03-18T10:10:15.746Z,11.00
2019-03-18T10:12:44.440Z,10.30
2019-03-18T10:15:14.439Z,9.70
2019-03-18T10:17:43.030Z,8.80
2019-03-18T10:20:11.766Z,7.90
2019-03-18T10:22:40.407Z,7.30
2019-03-18T10:25:09.187Z,6.50
2019-03-18T10:27:38.069Z,6.40
2019-03-18T10:30:12.591Z,6.90
2019-03-18T10:32:41.179Z,7.50
2019-03-18T10:35:10.580Z,7.60
2019-03-18T10:37:39.223Z,7.40
2019-03-18T10:40:12.694Z,7.40
2019-03-18T10:42:41.426Z,7.50
2019-03-18T10:45:11.541Z,7.40
2019-03-18T10:47:40.170Z,7.40
2019-03-18T10:50:11.384Z,7.60
2019-03-18T10:52:39.962Z,7.30
2019-03-18T10:55:09.861Z,7.10
2019-03-18T10:57:38.474Z,6.70
2019-03-18T11:00:15.283Z,6.80
2019-03-18T11:02:45.248Z,7.20
2019-03-18T11:05:14.727Z,7.60
2019-03-18T11:07:43.475Z,7.50
2019-03-18T11:10:13.571Z,7.60
2019-03-18T11:12:42.218Z,8.10
2019-03-18T11:15:12.796Z,8.60
2019-03-18T11:17:41.370Z,9.00
2019-03-18T11:20:12.638Z,8.80
2019-03-18T11:22:41.315Z,8.80
2019-03-18T11:25:11.978Z,8.50
2019-03-18T11:27:40.682Z,8.00
2019-03-18T11:30:14.561Z,7.20
2019-03-18T11:32:43.195Z,7.10
2019-03-18T11:35:12.139Z,6.60
2019-03-18T11:37:40.773Z,6.70
2019-03-18T11:40:15.234Z,6.90
2019-03-18T11:42:44.265Z,7.00
2019-03-18T11:45:14.546Z,7.00
2019-03-18T11:47:43.361Z,7.20
2019-03-18T11:50:14.511Z,7.30
2019-03-18T11:52:43.150Z,7.30
2019-03-18T11:55:14.422Z,7.30
2019-03-18T11:57:43.133Z,7.10
2019-03-18T12:00:14.443Z,6.90
2019-03-18T12:02:43.114Z,6.60
2019-03-18T12:05:14.111Z,6.70
2019-03-18T12:07:42.686Z,6.90
2019-03-18T12:10:14.291Z,7.00
2019-03-18T12:12:42.906Z,7.30
2019-03-18T12:15:13.810Z,7.20
2019-03-18T12:17:42.442Z,7.10
2019-03-18T12:20:23.590Z,6.90
2019-03-18T12:22:43.193Z,6.60
2019-03-18T12:25:12.806Z,6.30
2019-03-18T12:27:41.438Z,6.30
2019-03-18T12:30:24.238Z,6.40
2019-03-18T12:32:52.954Z,6.40
2019-03-18T12:35:21.779Z,6.30
2019-03-18T12:37:50.448Z,6.00
2019-03-18T12:40:19.362Z,5.90
2019-03-18T12:42:48.206Z,5.70
2019-03-18T12:45:17.911Z,5.50
2019-03-18T12:47:46.625Z,5.50
2019-03-18T12:50:17.915Z,5.50
2019-03-18T12:52:46.717Z,5.50
2019-03-18T12:55:15.618Z,5.50
2019-03-18T12:57:44.327Z,5.30
2019-03-18T13:00:26.950Z,5.30
2019-03-18T13:02:55.622Z,5.20
2019-03-18T13:05:24.310Z,5.10
2019-03-18T13:07:53.023Z,4.90
2019-03-18T13:10:22.232Z,4.80
2019-03-18T13:12:51.174Z,4.80
2019-03-18T13:15:20.586Z,4.80
2019-03-18T13:17:49.164Z,4.80
2019-03-18T13:20:20.139Z,4.80
2019-03-18T13:22:48.835Z,4.70
2019-03-18T13:25:17.534Z,4.60
2019-03-18T13:27:46.237Z,4.40
2019-03-18T13:30:16.637Z,4.40
2019-03-18T13:32:45.281Z,4.40
2019-03-18T13:35:14.387Z,4.40
2019-03-18T13:37:43.207Z,4.30
2019-03-18T13:40:16.609Z,4.30
2019-03-18T13:42:45.374Z,4.20
2019-03-18T13:45:33.246Z,4.10
2019-03-18T13:48:01.900Z,4.10
2019-03-18T13:50:30.450Z,3.90
2019-03-18T13:52:59.030Z,3.80
2019-03-18T13:55:27.674Z,3.80
2019-03-18T13:57:56.338Z,3.80
2019-03-18T14:00:25.062Z,3.70
2019-03-18T14:02:53.697Z,3.70
2019-03-18T14:05:22.338Z,3.60
2019-03-18T14:08:00.195Z,3.50
2019-03-18T14:10:22.262Z,3.30
2019-03-18T14:12:51.070Z,3.20
2019-03-18T14:15:21.814Z,3.10
2019-03-18T14:17:50.820Z,3.20
2019-03-18T14:20:20.923Z,3.20
2019-03-18T14:22:49.644Z,3.10
2019-03-18T14:25:18.265Z,3.10
2019-03-18T14:27:46.910Z,3.10
2019-03-18T14:30:17.582Z,3.10
2019-03-18T14:32:46.390Z,3.10
2019-03-18T14:35:15.096Z,3.00
2019-03-18T14:37:43.813Z,3.00
2019-03-18T14:40:17.546Z,3.10
2019-03-18T14:42:46.130Z,3.10
2019-03-18T14:45:22.063Z,3.10
2019-03-18T14:47:50.814Z,3.10
2019-03-18T14:50:20.266Z,3.10
2019-03-18T14:52:49.185Z,3.10
2019-03-18T14:55:19.543Z,3.00
2019-03-18T14:57:48.246Z,3.00
2019-03-18T15:00:24.815Z,2.90
2019-03-18T15:02:53.523Z,2.90
2019-03-18T15:05:22.103Z,2.90
2019-03-18T15:07:50.735Z,3.00
2019-03-18T15:10:23.694Z,2.90
2019-03-18T15:12:52.406Z,3.00
2019-03-18T15:15:21.322Z,3.00
2019-03-18T15:17:49.902Z,2.90
2019-03-18T15:20:22.314Z,2.90
2019-03-18T15:22:50.899Z,2.90
2019-03-18T15:25:25.116Z,2.80
2019-03-18T15:27:54.168Z,2.80
2019-03-18T15:30:23.118Z,2.80
2019-03-18T15:32:52.176Z,2.80
2019-03-18T15:35:20.770Z,2.80
2019-03-18T15:37:49.416Z,2.70
2019-03-18T15:40:20.398Z,2.70
2019-03-18T15:42:48.964Z,2.70
2019-03-18T15:45:18.695Z,2.70
2019-03-18T15:47:47.258Z,2.70
2019-03-18T15:50:22.318Z,2.60
2019-03-18T15:52:51.028Z,2.50
2019-03-18T15:55:19.746Z,2.50
2019-03-18T15:57:48.394Z,2.40
2019-03-18T16:00:28.006Z,2.30
2019-03-18T16:02:56.666Z,2.20
2019-03-18T16:05:25.367Z,2.10
2019-03-18T16:07:54.087Z,2.00
2019-03-18T16:10:22.722Z,2.00
2019-03-18T16:12:51.380Z,1.90
2019-03-18T16:15:20.100Z,1.90
2019-03-18T16:17:48.752Z,1.90
2019-03-18T16:20:18.857Z,1.80
2019-03-18T16:22:47.542Z,1.80
2019-03-18T16:25:16.334Z,1.80
2019-03-18T16:27:45.150Z,1.70
2019-03-18T16:30:15.936Z,1.80
2019-03-18T16:32:44.563Z,1.80
2019-03-18T16:35:15.971Z,1.80
2019-03-18T16:37:44.757Z,1.80
2019-03-18T16:40:18.121Z,1.80
2019-03-18T16:42:47.004Z,1.80
2019-03-18T16:45:16.822Z,1.80
2019-03-18T16:47:45.382Z,1.70
2019-03-18T16:50:16.282Z,1.70
2019-03-18T16:52:44.931Z,1.60
2019-03-18T16:55:13.761Z,1.60
2019-03-18T16:57:42.485Z,1.60
2019-03-18T17:00:13.686Z,1.60
2019-03-18T17:02:42.390Z,1.60
2019-03-18T17:05:10.950Z,1.60
2019-03-18T17:07:39.532Z,1.70
2019-03-18T17:10:11.031Z,1.70
2019-03-18T17:12:39.613Z,1.70
2019-03-18T17:15:10.786Z,1.70
2019-03-18T17:17:39.366Z,1.70
2019-03-18T17:20:10.942Z,1.70
2019-03-18T17:22:48.657Z,1.70
2019-03-18T17:25:12.790Z,1.70
2019-03-18T17:27:41.423Z,1.80
2019-03-18T17:30:15.626Z,1.80
2019-03-18T17:32:44.326Z,1.80
2019-03-18T17:35:13.140Z,1.80
2019-03-18T17:37:41.777Z,1.80
2019-03-18T17:40:12.601Z,1.80
2019-03-18T17:42:41.246Z,1.90
2019-03-18T17:45:12.150Z,1.80
2019-03-18T17:47:40.727Z,1.80
2019-03-18T17:50:12.332Z,1.80
2019-03-18T17:52:40.914Z,1.80
2019-03-18T17:55:09.612Z,1.80
2019-03-18T17:57:38.186Z,1.80
2019-03-18T18:00:16.738Z,1.80
2019-03-18T18:02:45.458Z,1.90
2019-03-18T18:05:14.102Z,1.80
2019-03-18T18:07:42.667Z,1.90
2019-03-18T18:10:11.882Z,1.90
2019-03-18T18:12:40.449Z,1.80
2019-03-18T18:15:11.225Z,1.80
2019-03-18T18:17:39.934Z,1.80
2019-03-18T18:20:15.357Z,1.80
2019-03-18T18:22:43.995Z,1.80
2019-03-18T18:25:14.495Z,1.80
2019-03-18T18:27:43.118Z,1.80
2019-03-18T18:30:14.010Z,1.80
2019-03-18T18:32:42.590Z,1.80
2019-03-18T18:35:11.994Z,1.90
2019-03-18T18:37:40.742Z,1.80
2019-03-18T18:40:17.907Z,1.80
2019-03-18T18:42:46.546Z,1.80
2019-03-18T18:45:15.188Z,1.80
2019-03-18T18:47:43.830Z,1.90
2019-03-18T18:50:13.430Z,1.90
2019-03-18T18:52:42.016Z,1.90
2019-03-18T18:55:12.594Z,2.00
2019-03-18T18:57:41.226Z,2.00
2019-03-18T19:00:20.338Z,2.00
2019-03-18T19:02:48.969Z,2.00
2019-03-18T19:05:18.189Z,2.10
2019-03-18T19:07:46.891Z,2.10
2019-03-18T19:10:19.484Z,2.10
2019-03-18T19:12:48.047Z,2.00
2019-03-18T19:15:24.298Z,2.10
2019-03-18T19:17:52.858Z,2.00
2019-03-18T19:20:21.578Z,2.00
2019-03-18T19:22:50.644Z,2.00
2019-03-18T19:25:19.951Z,1.90
2019-03-18T19:27:48.778Z,1.80
2019-03-18T19:30:19.402Z,1.80
2019-03-18T19:32:48.106Z,1.80
2019-03-18T19:35:16.787Z,1.80
2019-03-18T19:37:45.724Z,1.80
2019-03-18T19:40:20.308Z,1.80
2019-03-18T19:42:49.050Z,1.70
2019-03-18T19:45:17.670Z,1.70
2019-03-18T19:47:46.241Z,1.70
2019-03-18T19:50:28.928Z,1.60
2019-03-18T19:52:57.499Z,1.60
2019-03-18T19:55:26.134Z,1.50
2019-03-18T19:57:54.701Z,1.40
2019-03-18T20:00:27.832Z,1.40
2019-03-18T20:02:56.606Z,1.50
2019-03-18T20:05:25.194Z,1.50
2019-03-18T20:07:53.898Z,1.60
2019-03-18T20:10:22.986Z,1.70
2019-03-18T20:12:51.678Z,1.80
2019-03-18T20:15:20.784Z,1.90
2019-03-18T20:17:49.497Z,1.90
2019-03-18T20:20:23.170Z,2.00
2019-03-18T20:22:51.901Z,2.00
2019-03-18T20:25:20.534Z,2.00
2019-03-18T20:27:49.181Z,2.00
2019-03-18T20:30:21.829Z,2.10
2019-03-18T20:32:50.643Z,2.10
2019-03-18T20:35:20.747Z,2.10
2019-03-18T20:37:51.590Z,2.20
2019-03-18T20:40:20.072Z,2.10
2019-03-18T20:42:48.698Z,2.20
2019-03-18T20:45:24.326Z,2.20
2019-03-18T20:47:52.898Z,2.20
2019-03-18T20:50:23.679Z,2.20
2019-03-18T20:52:52.410Z,2.20
2019-03-18T20:55:40.322Z,2.20
2019-03-18T20:58:08.954Z,2.20
2019-03-18T21:00:37.951Z,2.20
2019-03-18T21:03:06.642Z,2.20
2019-03-18T21:05:35.347Z,2.30
2019-03-18T21:08:03.994Z,2.30
2019-03-18T21:10:32.558Z,2.30
2019-03-18T21:13:01.205Z,2.30
2019-03-18T21:15:29.766Z,2.30
2019-03-18T21:17:58.342Z,2.30
2019-03-18T21:20:30.786Z,2.30
2019-03-18T21:22:59.537Z,2.30
2019-03-18T21:25:28.106Z,2.30
2019-03-18T21:27:56.690Z,2.30
2019-03-18T21:30:25.502Z,2.30
2019-03-18T21:32:54.104Z,2.30
2019-03-18T21:35:22.738Z,2.30
2019-03-18T21:37:51.302Z,2.30
2019-03-18T21:40:20.822Z,2.30
2019-03-18T21:42:49.523Z,2.30
2019-03-18T21:45:19.190Z,2.30
2019-03-18T21:47:47.994Z,2.40
2019-03-18T21:50:17.258Z,2.40
2019-03-18T21:52:46.070Z,2.40
2019-03-18T21:55:16.074Z,2.40
2019-03-18T21:57:44.787Z,2.40
2019-03-18T22:00:17.824Z,2.40
2019-03-18T22:02:46.649Z,2.40
2019-03-18T22:05:15.648Z,2.40
2019-03-18T22:07:44.222Z,2.40
2019-03-18T22:10:15.089Z,2.40
2019-03-18T22:13:03.071Z,2.40
2019-03-18T22:15:31.634Z,2.40
2019-03-18T22:18:00.203Z,2.40
2019-03-18T22:20:28.780Z,2.50
2019-03-18T22:22:57.343Z,2.50
2019-03-18T22:25:25.917Z,2.40
2019-03-18T22:27:54.482Z,2.40
2019-03-18T22:30:23.061Z,2.40
2019-03-18T22:32:51.625Z,2.40
2019-03-18T22:35:20.207Z,2.40
2019-03-18T22:37:48.773Z,2.40
2019-03-18T22:40:17.885Z,2.40
2019-03-18T22:42:46.609Z,2.40
2019-03-18T22:45:16.323Z,2.40
2019-03-18T22:47:44.969Z,2.40
2019-03-18T22:50:14.266Z,2.40
2019-03-18T22:52:42.840Z,2.40
2019-03-18T22:55:12.538Z,2.30
2019-03-18T22:57:41.182Z,2.30
2019-03-18T23:00:38.305Z,2.40
2019-03-18T23:03:07.226Z,2.30
2019-03-18T23:05:35.878Z,2.40
2019-03-18T23:08:04.981Z,2.30
2019-03-18T23:10:33.726Z,2.30
2019-03-18T23:13:02.286Z,2.30
2019-03-18T23:15:30.930Z,2.40
2019-03-18T23:17:59.562Z,2.30
2019-03-18T23:20:28.150Z,2.30
2019-03-18T23:22:56.738Z,2.30
2019-03-18T23:25:25.310Z,2.30
2019-03-18T23:27:53.876Z,2.20
2019-03-18T23:30:22.510Z,2.20
2019-03-18T23:32:51.150Z,2.20
2019-03-18T23:35:19.782Z,2.20
2019-03-18T23:37:48.406Z,2.20
2019-03-18T23:40:17.064Z,2.10
2019-03-18T23:42:45.638Z,2.20
2019-03-18T23:45:14.373Z,2.20
2019-03-18T23:47:42.950Z,2.10
2019-03-18T23:50:13.826Z,2.10
2019-03-18T23:52:42.698Z,2.10
2019-03-18T23:55:18.835Z,2.10
2019-03-18T23:57:41.883Z,2.10
